sensor_id;sensor_type;location;lat;lon;timestamp;temperature;humidity
7290;DHT22;63176;52.678;13.250;2023-07-24T00:01:32;18.70;99.90
7290;DHT22;63176;52.678;13.250;2023-07-24T00:03:58;18.70;99.90
7290;DHT22;63176;52.678;13.250;2023-07-24T00:06:24;18.70;99.90
7290;DHT22;63176;52.678;13.250;2023-07-24T00:08:50;18.60;99.90
7290;DHT22;63176;52.678;13.250;2023-07-24T00:11:15;18.60;99.90
7290;DHT22;63176;52.678;13.250;2023-07-24T00:13:41;18.60;99.90
7290;DHT22;63176;52.678;13.250;2023-07-24T00:16:09;18.60;99.90
7290;DHT22;63176;52.678;13.250;2023-07-24T00:18:35;18.50;99.90
7290;DHT22;63176;52.678;13.250;2023-07-24T00:21:01;18.50;99.90
7290;DHT22;63176;52.678;13.250;2023-07-24T00:23:27;18.50;99.90
7290;DHT22;63176;52.678;13.250;2023-07-24T00:25:52;18.50;99.90
7290;DHT22;63176;52.678;13.250;2023-07-24T00:28:19;18.50;99.90
7290;DHT22;63176;52.678;13.250;2023-07-24T00:30:44;18.50;99.90
7290;DHT22;63176;52.678;13.250;2023-07-24T00:33:11;18.50;99.90
7290;DHT22;63176;52.678;13.250;2023-07-24T00:35:36;18.50;99.90
7290;DHT22;63176;52.678;13.250;2023-07-24T00:38:02;18.50;99.90
7290;DHT22;63176;52.678;13.250;2023-07-24T00:40:28;18.50;99.90
7290;DHT22;63176;52.678;13.250;2023-07-24T00:42:53;18.50;99.90
7290;DHT22;63176;52.678;13.250;2023-07-24T00:45:22;18.50;99.90
7290;DHT22;63176;52.678;13.250;2023-07-24T00:47:48;18.60;99.90
7290;DHT22;63176;52.678;13.250;2023-07-24T00:50:14;18.60;99.90
7290;DHT22;63176;52.678;13.250;2023-07-24T00:52:40;18.60;99.90
7290;DHT22;63176;52.678;13.250;2023-07-24T00:55:07;18.70;99.90
7290;DHT22;63176;52.678;13.250;2023-07-24T00:57:34;18.80;99.90
7290;DHT22;63176;52.678;13.250;2023-07-24T01:00:00;18.90;99.90
7290;DHT22;63176;52.678;13.250;2023-07-24T01:02:26;18.90;99.90
7290;DHT22;63176;52.678;13.250;2023-07-24T01:04:52;19.00;99.90
7290;DHT22;63176;52.678;13.250;2023-07-24T01:07:18;19.00;99.90
7290;DHT22;63176;52.678;13.250;2023-07-24T01:09:43;19.10;99.90
7290;DHT22;63176;52.678;13.250;2023-07-24T01:12:41;19.10;99.90
7290;DHT22;63176;52.678;13.250;2023-07-24T01:15:21;19.20;99.90
7290;DHT22;63176;52.678;13.250;2023-07-24T01:17:56;19.20;99.90
7290;DHT22;63176;52.678;13.250;2023-07-24T01:20:26;19.20;99.90
7290;DHT22;63176;52.678;13.250;2023-07-24T01:25:58;19.20;99.90
7290;DHT22;63176;52.678;13.250;2023-07-24T01:28:25;19.20;99.90
7290;DHT22;63176;52.678;13.250;2023-07-24T01:30:51;19.10;99.90
7290;DHT22;63176;52.678;13.250;2023-07-24T01:33:17;19.10;99.90
7290;DHT22;63176;52.678;13.250;2023-07-24T01:35:44;19.10;99.90
7290;DHT22;63176;52.678;13.250;2023-07-24T01:38:13;19.10;99.90
7290;DHT22;63176;52.678;13.250;2023-07-24T01:40:43;19.00;99.90
7290;DHT22;63176;52.678;13.250;2023-07-24T01:43:09;19.00;99.90
7290;DHT22;63176;52.678;13.250;2023-07-24T01:45:35;19.00;99.90
7290;DHT22;63176;52.678;13.250;2023-07-24T01:48:03;19.00;99.90
7290;DHT22;63176;52.678;13.250;2023-07-24T01:50:29;19.00;99.90
7290;DHT22;63176;52.678;13.250;2023-07-24T01:52:55;19.00;99.90
7290;DHT22;63176;52.678;13.250;2023-07-24T01:55:20;18.90;99.90
7290;DHT22;63176;52.678;13.250;2023-07-24T01:57:46;18.90;99.90
7290;DHT22;63176;52.678;13.250;2023-07-24T02:00:12;19.00;99.90
7290;DHT22;63176;52.678;13.250;2023-07-24T02:02:37;19.00;99.90
7290;DHT22;63176;52.678;13.250;2023-07-24T02:05:03;19.00;99.90
7290;DHT22;63176;52.678;13.250;2023-07-24T02:07:29;19.00;99.90
7290;DHT22;63176;52.678;13.250;2023-07-24T02:09:54;18.90;99.90
7290;DHT22;63176;52.678;13.250;2023-07-24T02:12:20;18.90;99.90
7290;DHT22;63176;52.678;13.250;2023-07-24T02:14:46;18.90;99.90
7290;DHT22;63176;52.678;13.250;2023-07-24T02:17:15;18.90;99.90
7290;DHT22;63176;52.678;13.250;2023-07-24T02:19:41;18.90;99.90
7290;DHT22;63176;52.678;13.250;2023-07-24T02:22:07;18.80;99.90
7290;DHT22;63176;52.678;13.250;2023-07-24T02:24:32;18.70;99.90
7290;DHT22;63176;52.678;13.250;2023-07-24T02:26:58;18.70;99.90
7290;DHT22;63176;52.678;13.250;2023-07-24T02:29:24;18.60;99.90
7290;DHT22;63176;52.678;13.250;2023-07-24T02:31:50;18.60;99.90
7290;DHT22;63176;52.678;13.250;2023-07-24T02:34:16;18.50;99.90
7290;DHT22;63176;52.678;13.250;2023-07-24T02:36:41;18.50;99.90
7290;DHT22;63176;52.678;13.250;2023-07-24T02:39:07;18.60;99.90
7290;DHT22;63176;52.678;13.250;2023-07-24T02:41:33;18.60;99.90
7290;DHT22;63176;52.678;13.250;2023-07-24T02:43:59;18.70;99.90
7290;DHT22;63176;52.678;13.250;2023-07-24T02:46:24;18.70;99.90
7290;DHT22;63176;52.678;13.250;2023-07-24T02:48:51;18.80;99.90
7290;DHT22;63176;52.678;13.250;2023-07-24T02:51:17;18.80;99.90
7290;DHT22;63176;52.678;13.250;2023-07-24T02:53:43;18.90;99.90
7290;DHT22;63176;52.678;13.250;2023-07-24T02:56:08;18.90;99.90
7290;DHT22;63176;52.678;13.250;2023-07-24T02:58:34;19.00;99.90
7290;DHT22;63176;52.678;13.250;2023-07-24T03:01:04;19.00;99.90
7290;DHT22;63176;52.678;13.250;2023-07-24T03:03:31;19.00;99.90
7290;DHT22;63176;52.678;13.250;2023-07-24T03:05:57;19.10;99.90
7290;DHT22;63176;52.678;13.250;2023-07-24T03:08:22;19.20;99.90
7290;DHT22;63176;52.678;13.250;2023-07-24T03:10:52;19.20;99.90
7290;DHT22;63176;52.678;13.250;2023-07-24T03:13:17;19.20;99.90
7290;DHT22;63176;52.678;13.250;2023-07-24T03:15:44;19.30;99.90
7290;DHT22;63176;52.678;13.250;2023-07-24T03:18:10;19.40;99.90
7290;DHT22;63176;52.678;13.250;2023-07-24T03:20:35;19.40;99.90
7290;DHT22;63176;52.678;13.250;2023-07-24T03:23:01;19.40;99.90
7290;DHT22;63176;52.678;13.250;2023-07-24T03:25:27;19.40;99.90
7290;DHT22;63176;52.678;13.250;2023-07-24T03:27:52;19.50;99.90
7290;DHT22;63176;52.678;13.250;2023-07-24T03:30:18;19.50;99.90
7290;DHT22;63176;52.678;13.250;2023-07-24T03:32:43;19.40;99.90
7290;DHT22;63176;52.678;13.250;2023-07-24T03:35:09;19.40;99.90
7290;DHT22;63176;52.678;13.250;2023-07-24T03:37:35;19.30;99.90
7290;DHT22;63176;52.678;13.250;2023-07-24T03:40:04;19.30;99.90
7290;DHT22;63176;52.678;13.250;2023-07-24T03:42:31;19.20;99.90
7290;DHT22;63176;52.678;13.250;2023-07-24T03:44:57;19.20;99.90
7290;DHT22;63176;52.678;13.250;2023-07-24T03:47:23;19.20;99.90
7290;DHT22;63176;52.678;13.250;2023-07-24T03:49:50;19.10;99.90
7290;DHT22;63176;52.678;13.250;2023-07-24T03:52:15;19.10;99.90
7290;DHT22;63176;52.678;13.250;2023-07-24T03:54:41;19.00;99.90
7290;DHT22;63176;52.678;13.250;2023-07-24T03:57:07;19.00;99.90
7290;DHT22;63176;52.678;13.250;2023-07-24T03:59:33;19.00;99.90
7290;DHT22;63176;52.678;13.250;2023-07-24T04:01:59;18.90;99.90
7290;DHT22;63176;52.678;13.250;2023-07-24T04:04:24;18.90;99.90
7290;DHT22;63176;52.678;13.250;2023-07-24T04:06:50;18.80;99.90
7290;DHT22;63176;52.678;13.250;2023-07-24T04:09:16;18.80;99.90
7290;DHT22;63176;52.678;13.250;2023-07-24T04:11:43;18.70;99.90
7290;DHT22;63176;52.678;13.250;2023-07-24T04:14:08;18.70;99.90
7290;DHT22;63176;52.678;13.250;2023-07-24T04:16:34;18.60;99.90
7290;DHT22;63176;52.678;13.250;2023-07-24T04:19:00;18.60;99.90
7290;DHT22;63176;52.678;13.250;2023-07-24T04:21:25;18.60;99.90
7290;DHT22;63176;52.678;13.250;2023-07-24T04:23:51;18.50;99.90
7290;DHT22;63176;52.678;13.250;2023-07-24T04:26:16;18.50;99.90
7290;DHT22;63176;52.678;13.250;2023-07-24T04:28:42;18.50;99.90
7290;DHT22;63176;52.678;13.250;2023-07-24T04:31:08;18.50;99.90
7290;DHT22;63176;52.678;13.250;2023-07-24T04:33:33;18.40;99.90
7290;DHT22;63176;52.678;13.250;2023-07-24T04:35:59;18.40;99.90
7290;DHT22;63176;52.678;13.250;2023-07-24T04:38:25;18.40;99.90
7290;DHT22;63176;52.678;13.250;2023-07-24T04:41:02;18.40;99.90
7290;DHT22;63176;52.678;13.250;2023-07-24T04:43:28;18.40;99.90
7290;DHT22;63176;52.678;13.250;2023-07-24T04:45:54;18.50;99.90
7290;DHT22;63176;52.678;13.250;2023-07-24T04:48:20;18.50;99.90
7290;DHT22;63176;52.678;13.250;2023-07-24T04:50:46;18.50;99.90
7290;DHT22;63176;52.678;13.250;2023-07-24T04:53:11;18.50;99.90
7290;DHT22;63176;52.678;13.250;2023-07-24T04:55:37;18.50;99.90
7290;DHT22;63176;52.678;13.250;2023-07-24T04:58:03;18.60;99.90
7290;DHT22;63176;52.678;13.250;2023-07-24T05:00:28;18.60;99.90
7290;DHT22;63176;52.678;13.250;2023-07-24T05:02:54;18.60;99.90
7290;DHT22;63176;52.678;13.250;2023-07-24T05:05:20;18.70;99.90
7290;DHT22;63176;52.678;13.250;2023-07-24T05:07:45;18.80;99.90
7290;DHT22;63176;52.678;13.250;2023-07-24T05:10:35;18.70;99.90
7290;DHT22;63176;52.678;13.250;2023-07-24T05:13:01;18.80;99.90
7290;DHT22;63176;52.678;13.250;2023-07-24T05:15:27;18.70;99.90
7290;DHT22;63176;52.678;13.250;2023-07-24T05:17:53;18.80;99.90
7290;DHT22;63176;52.678;13.250;2023-07-24T05:20:19;18.90;99.90
7290;DHT22;63176;52.678;13.250;2023-07-24T05:22:45;18.90;99.90
7290;DHT22;63176;52.678;13.250;2023-07-24T05:25:10;19.00;99.90
7290;DHT22;63176;52.678;13.250;2023-07-24T05:27:36;19.10;99.90
7290;DHT22;63176;52.678;13.250;2023-07-24T05:30:02;19.10;99.90
7290;DHT22;63176;52.678;13.250;2023-07-24T05:32:28;19.20;99.90
7290;DHT22;63176;52.678;13.250;2023-07-24T05:34:53;19.30;99.90
7290;DHT22;63176;52.678;13.250;2023-07-24T05:37:19;19.40;99.90
7290;DHT22;63176;52.678;13.250;2023-07-24T05:39:45;19.40;99.90
7290;DHT22;63176;52.678;13.250;2023-07-24T05:42:10;19.50;99.90
7290;DHT22;63176;52.678;13.250;2023-07-24T05:44:39;19.60;99.90
7290;DHT22;63176;52.678;13.250;2023-07-24T05:47:05;19.60;99.90
7290;DHT22;63176;52.678;13.250;2023-07-24T05:49:53;19.70;99.90
7290;DHT22;63176;52.678;13.250;2023-07-24T05:52:44;19.60;99.90
7290;DHT22;63176;52.678;13.250;2023-07-24T05:58:45;19.80;99.90
7290;DHT22;63176;52.678;13.250;2023-07-24T06:04:24;20.10;99.90
7290;DHT22;63176;52.678;13.250;2023-07-24T06:06:50;20.00;99.90
7290;DHT22;63176;52.678;13.250;2023-07-24T06:09:16;20.10;99.90
7290;DHT22;63176;52.678;13.250;2023-07-24T06:11:42;20.20;99.90
7290;DHT22;63176;52.678;13.250;2023-07-24T06:14:07;20.40;99.90
7290;DHT22;63176;52.678;13.250;2023-07-24T06:16:33;20.40;99.90
7290;DHT22;63176;52.678;13.250;2023-07-24T06:18:59;20.50;99.90
7290;DHT22;63176;52.678;13.250;2023-07-24T06:21:24;20.60;99.90
7290;DHT22;63176;52.678;13.250;2023-07-24T06:23:50;20.70;99.90
7290;DHT22;63176;52.678;13.250;2023-07-24T06:26:16;20.70;99.90
7290;DHT22;63176;52.678;13.250;2023-07-24T06:28:43;20.70;99.90
7290;DHT22;63176;52.678;13.250;2023-07-24T06:31:08;20.70;99.90
7290;DHT22;63176;52.678;13.250;2023-07-24T06:33:34;20.80;99.90
7290;DHT22;63176;52.678;13.250;2023-07-24T06:35:59;20.80;99.90
7290;DHT22;63176;52.678;13.250;2023-07-24T06:38:25;20.80;99.90
7290;DHT22;63176;52.678;13.250;2023-07-24T06:40:51;20.90;99.90
7290;DHT22;63176;52.678;13.250;2023-07-24T06:43:17;20.90;99.90
7290;DHT22;63176;52.678;13.250;2023-07-24T06:45:42;20.90;99.90
7290;DHT22;63176;52.678;13.250;2023-07-24T06:48:08;21.00;99.90
7290;DHT22;63176;52.678;13.250;2023-07-24T06:50:34;21.00;99.90
7290;DHT22;63176;52.678;13.250;2023-07-24T06:52:59;21.00;99.90
7290;DHT22;63176;52.678;13.250;2023-07-24T06:55:25;21.10;99.90
7290;DHT22;63176;52.678;13.250;2023-07-24T06:57:50;21.10;99.90
7290;DHT22;63176;52.678;13.250;2023-07-24T07:00:16;21.20;99.90
7290;DHT22;63176;52.678;13.250;2023-07-24T07:02:42;21.30;99.90
7290;DHT22;63176;52.678;13.250;2023-07-24T07:05:08;21.30;99.90
7290;DHT22;63176;52.678;13.250;2023-07-24T07:07:34;21.40;99.90
7290;DHT22;63176;52.678;13.250;2023-07-24T07:09:59;21.40;99.90
7290;DHT22;63176;52.678;13.250;2023-07-24T07:12:25;21.40;99.90
7290;DHT22;63176;52.678;13.250;2023-07-24T07:14:51;21.40;99.90
7290;DHT22;63176;52.678;13.250;2023-07-24T07:17:19;21.40;99.90
7290;DHT22;63176;52.678;13.250;2023-07-24T07:19:45;21.40;99.90
7290;DHT22;63176;52.678;13.250;2023-07-24T07:22:10;21.50;99.90
7290;DHT22;63176;52.678;13.250;2023-07-24T07:24:36;21.60;99.90
7290;DHT22;63176;52.678;13.250;2023-07-24T07:27:02;21.70;99.90
7290;DHT22;63176;52.678;13.250;2023-07-24T07:29:28;21.80;99.90
7290;DHT22;63176;52.678;13.250;2023-07-24T07:31:54;21.80;99.90
7290;DHT22;63176;52.678;13.250;2023-07-24T07:34:20;21.90;99.90
7290;DHT22;63176;52.678;13.250;2023-07-24T07:36:45;21.90;99.90
7290;DHT22;63176;52.678;13.250;2023-07-24T07:39:13;22.00;99.90
7290;DHT22;63176;52.678;13.250;2023-07-24T07:41:40;22.00;99.90
7290;DHT22;63176;52.678;13.250;2023-07-24T07:44:07;22.00;99.90
7290;DHT22;63176;52.678;13.250;2023-07-24T07:46:35;22.10;99.90
7290;DHT22;63176;52.678;13.250;2023-07-24T07:52:13;22.30;99.90
7290;DHT22;63176;52.678;13.250;2023-07-24T07:54:46;22.30;99.90
7290;DHT22;63176;52.678;13.250;2023-07-24T07:57:12;22.40;99.90
7290;DHT22;63176;52.678;13.250;2023-07-24T07:59:38;22.50;99.90
7290;DHT22;63176;52.678;13.250;2023-07-24T08:02:04;22.60;99.90
7290;DHT22;63176;52.678;13.250;2023-07-24T08:04:30;22.80;99.90
7290;DHT22;63176;52.678;13.250;2023-07-24T08:06:56;22.70;99.90
7290;DHT22;63176;52.678;13.250;2023-07-24T08:09:23;22.90;99.90
7290;DHT22;63176;52.678;13.250;2023-07-24T08:11:50;22.90;99.90
7290;DHT22;63176;52.678;13.250;2023-07-24T08:14:17;23.00;99.90
7290;DHT22;63176;52.678;13.250;2023-07-24T08:16:43;23.10;99.90
7290;DHT22;63176;52.678;13.250;2023-07-24T08:19:09;23.00;99.90
7290;DHT22;63176;52.678;13.250;2023-07-24T08:21:37;23.10;99.90
7290;DHT22;63176;52.678;13.250;2023-07-24T08:24:04;23.10;99.90
7290;DHT22;63176;52.678;13.250;2023-07-24T08:26:39;23.30;99.90
7290;DHT22;63176;52.678;13.250;2023-07-24T08:32:18;23.30;99.90
7290;DHT22;63176;52.678;13.250;2023-07-24T08:34:44;23.60;99.90
7290;DHT22;63176;52.678;13.250;2023-07-24T08:37:11;23.60;99.90
7290;DHT22;63176;52.678;13.250;2023-07-24T08:39:37;23.60;99.90
7290;DHT22;63176;52.678;13.250;2023-07-24T08:42:13;23.50;99.90
7290;DHT22;63176;52.678;13.250;2023-07-24T08:44:39;23.50;99.90
7290;DHT22;63176;52.678;13.250;2023-07-24T08:47:09;23.50;99.90
7290;DHT22;63176;52.678;13.250;2023-07-24T08:49:36;23.40;99.90
7290;DHT22;63176;52.678;13.250;2023-07-24T08:52:05;23.40;99.90
7290;DHT22;63176;52.678;13.250;2023-07-24T08:54:32;23.50;99.90
7290;DHT22;63176;52.678;13.250;2023-07-24T08:57:45;23.50;99.90
7290;DHT22;63176;52.678;13.250;2023-07-24T09:00:41;23.60;99.90
7290;DHT22;63176;52.678;13.250;2023-07-24T09:03:28;23.70;99.90
7290;DHT22;63176;52.678;13.250;2023-07-24T09:05:57;23.80;99.90
7290;DHT22;63176;52.678;13.250;2023-07-24T09:08:34;23.90;99.90
7290;DHT22;63176;52.678;13.250;2023-07-24T09:11:14;24.10;99.90
7290;DHT22;63176;52.678;13.250;2023-07-24T09:13:42;24.00;99.90
7290;DHT22;63176;52.678;13.250;2023-07-24T09:16:08;24.10;99.90
7290;DHT22;63176;52.678;13.250;2023-07-24T09:18:41;24.20;99.90
7290;DHT22;63176;52.678;13.250;2023-07-24T09:21:08;24.30;99.90
7290;DHT22;63176;52.678;13.250;2023-07-24T09:23:34;24.40;99.90
7290;DHT22;63176;52.678;13.250;2023-07-24T09:26:05;24.50;99.90
7290;DHT22;63176;52.678;13.250;2023-07-24T09:28:31;24.60;99.90
7290;DHT22;63176;52.678;13.250;2023-07-24T09:30:58;24.70;99.90
7290;DHT22;63176;52.678;13.250;2023-07-24T09:33:35;24.80;99.90
7290;DHT22;63176;52.678;13.250;2023-07-24T09:36:02;24.90;99.90
7290;DHT22;63176;52.678;13.250;2023-07-24T09:38:29;24.80;99.90
7290;DHT22;63176;52.678;13.250;2023-07-24T09:40:56;25.00;99.90
7290;DHT22;63176;52.678;13.250;2023-07-24T09:43:27;25.00;99.90
7290;DHT22;63176;52.678;13.250;2023-07-24T09:45:53;25.10;99.90
7290;DHT22;63176;52.678;13.250;2023-07-24T09:48:22;25.20;99.90
7290;DHT22;63176;52.678;13.250;2023-07-24T09:50:52;25.30;99.90
7290;DHT22;63176;52.678;13.250;2023-07-24T09:53:47;25.30;99.90
7290;DHT22;63176;52.678;13.250;2023-07-24T09:56:14;25.30;99.90
7290;DHT22;63176;52.678;13.250;2023-07-24T09:58:44;25.20;99.90
7290;DHT22;63176;52.678;13.250;2023-07-24T10:01:10;25.30;99.90
7290;DHT22;63176;52.678;13.250;2023-07-24T10:03:40;25.30;99.90
7290;DHT22;63176;52.678;13.250;2023-07-24T10:06:08;25.40;99.90
7290;DHT22;63176;52.678;13.250;2023-07-24T10:08:38;25.60;99.90
7290;DHT22;63176;52.678;13.250;2023-07-24T10:11:04;25.60;99.90
7290;DHT22;63176;52.678;13.250;2023-07-24T10:13:31;25.50;99.90
7290;DHT22;63176;52.678;13.250;2023-07-24T10:15:57;25.50;99.90
7290;DHT22;63176;52.678;13.250;2023-07-24T10:18:29;25.60;99.90
7290;DHT22;63176;52.678;13.250;2023-07-24T10:21:05;25.70;99.90
7290;DHT22;63176;52.678;13.250;2023-07-24T10:23:34;25.90;99.90
7290;DHT22;63176;52.678;13.250;2023-07-24T10:26:04;26.00;99.90
7290;DHT22;63176;52.678;13.250;2023-07-24T10:28:35;26.30;99.90
7290;DHT22;63176;52.678;13.250;2023-07-24T10:31:23;26.40;99.90
7290;DHT22;63176;52.678;13.250;2023-07-24T10:33:51;26.60;99.90
7290;DHT22;63176;52.678;13.250;2023-07-24T10:36:19;26.80;99.90
7290;DHT22;63176;52.678;13.250;2023-07-24T10:38:46;27.00;99.90
7290;DHT22;63176;52.678;13.250;2023-07-24T10:41:12;27.10;99.90
7290;DHT22;63176;52.678;13.250;2023-07-24T10:43:49;27.00;99.90
7290;DHT22;63176;52.678;13.250;2023-07-24T10:46:19;26.90;99.90
7290;DHT22;63176;52.678;13.250;2023-07-24T10:48:49;26.80;99.90
7290;DHT22;63176;52.678;13.250;2023-07-24T10:51:15;26.60;99.90
7290;DHT22;63176;52.678;13.250;2023-07-24T10:53:47;26.40;99.90
7290;DHT22;63176;52.678;13.250;2023-07-24T10:56:13;26.40;99.90
7290;DHT22;63176;52.678;13.250;2023-07-24T10:58:39;26.30;99.90
7290;DHT22;63176;52.678;13.250;2023-07-24T11:01:06;26.40;99.90
7290;DHT22;63176;52.678;13.250;2023-07-24T11:03:32;26.50;99.90
7290;DHT22;63176;52.678;13.250;2023-07-24T11:06:02;26.50;99.90
7290;DHT22;63176;52.678;13.250;2023-07-24T11:08:28;26.50;99.90
7290;DHT22;63176;52.678;13.250;2023-07-24T11:10:56;26.50;99.90
7290;DHT22;63176;52.678;13.250;2023-07-24T11:13:27;26.40;99.90
7290;DHT22;63176;52.678;13.250;2023-07-24T11:15:53;26.30;99.90
7290;DHT22;63176;52.678;13.250;2023-07-24T11:18:20;26.10;99.90
7290;DHT22;63176;52.678;13.250;2023-07-24T11:20:55;25.90;99.90
7290;DHT22;63176;52.678;13.250;2023-07-24T11:23:22;25.80;99.90
7290;DHT22;63176;52.678;13.250;2023-07-24T11:25:50;25.70;99.90
7290;DHT22;63176;52.678;13.250;2023-07-24T11:28:17;25.60;99.90
7290;DHT22;63176;52.678;13.250;2023-07-24T11:30:43;25.50;99.90
7290;DHT22;63176;52.678;13.250;2023-07-24T11:33:14;25.40;99.90
7290;DHT22;63176;52.678;13.250;2023-07-24T11:35:40;25.30;99.90
7290;DHT22;63176;52.678;13.250;2023-07-24T11:38:08;25.20;99.90
7290;DHT22;63176;52.678;13.250;2023-07-24T11:40:41;25.20;99.90
7290;DHT22;63176;52.678;13.250;2023-07-24T11:43:18;25.10;99.90
7290;DHT22;63176;52.678;13.250;2023-07-24T11:45:45;25.10;99.90
7290;DHT22;63176;52.678;13.250;2023-07-24T11:48:12;25.10;99.90
7290;DHT22;63176;52.678;13.250;2023-07-24T11:50:43;25.10;99.90
7290;DHT22;63176;52.678;13.250;2023-07-24T11:53:19;25.00;99.90
7290;DHT22;63176;52.678;13.250;2023-07-24T11:55:45;25.00;99.90
7290;DHT22;63176;52.678;13.250;2023-07-24T11:58:15;25.00;99.90
7290;DHT22;63176;52.678;13.250;2023-07-24T12:00:41;24.80;99.90
7290;DHT22;63176;52.678;13.250;2023-07-24T12:03:07;24.60;99.90
7290;DHT22;63176;52.678;13.250;2023-07-24T12:05:40;24.20;99.90
7290;DHT22;63176;52.678;13.250;2023-07-24T12:08:07;23.70;99.90
7290;DHT22;63176;52.678;13.250;2023-07-24T12:10:37;23.20;99.90
7290;DHT22;63176;52.678;13.250;2023-07-24T12:13:03;22.70;99.90
7290;DHT22;63176;52.678;13.250;2023-07-24T12:15:28;22.40;99.90
7290;DHT22;63176;52.678;13.250;2023-07-24T12:17:54;22.20;99.90
7290;DHT22;63176;52.678;13.250;2023-07-24T12:20:20;22.00;99.90
7290;DHT22;63176;52.678;13.250;2023-07-24T12:22:45;21.80;99.90
7290;DHT22;63176;52.678;13.250;2023-07-24T12:25:12;21.80;99.90
7290;DHT22;63176;52.678;13.250;2023-07-24T12:27:38;21.70;99.90
7290;DHT22;63176;52.678;13.250;2023-07-24T12:30:06;21.60;99.90
7290;DHT22;63176;52.678;13.250;2023-07-24T12:32:32;21.60;99.90
7290;DHT22;63176;52.678;13.250;2023-07-24T12:34:58;21.70;99.90
7290;DHT22;63176;52.678;13.250;2023-07-24T12:37:23;22.10;99.90
7290;DHT22;63176;52.678;13.250;2023-07-24T12:39:49;22.60;99.90
7290;DHT22;63176;52.678;13.250;2023-07-24T12:42:15;23.10;99.90
7290;DHT22;63176;52.678;13.250;2023-07-24T12:44:42;23.50;99.90
7290;DHT22;63176;52.678;13.250;2023-07-24T12:47:08;24.00;99.90
7290;DHT22;63176;52.678;13.250;2023-07-24T12:49:34;24.30;99.90
7290;DHT22;63176;52.678;13.250;2023-07-24T12:51:59;24.70;99.90
7290;DHT22;63176;52.678;13.250;2023-07-24T12:54:25;24.90;99.90
7290;DHT22;63176;52.678;13.250;2023-07-24T12:56:51;25.10;99.90
7290;DHT22;63176;52.678;13.250;2023-07-24T12:59:20;25.30;99.90
7290;DHT22;63176;52.678;13.250;2023-07-24T13:01:46;25.50;99.90
7290;DHT22;63176;52.678;13.250;2023-07-24T13:04:12;25.70;99.90
7290;DHT22;63176;52.678;13.250;2023-07-24T13:06:38;26.00;99.90
7290;DHT22;63176;52.678;13.250;2023-07-24T13:09:04;26.20;99.90
7290;DHT22;63176;52.678;13.250;2023-07-24T13:11:30;26.40;99.90
7290;DHT22;63176;52.678;13.250;2023-07-24T13:13:56;26.60;99.90
7290;DHT22;63176;52.678;13.250;2023-07-24T13:16:22;26.80;99.90
7290;DHT22;63176;52.678;13.250;2023-07-24T13:18:48;26.90;99.90
7290;DHT22;63176;52.678;13.250;2023-07-24T13:21:14;27.10;99.90
7290;DHT22;63176;52.678;13.250;2023-07-24T13:23:40;27.20;99.90
7290;DHT22;63176;52.678;13.250;2023-07-24T13:26:06;27.30;99.90
7290;DHT22;63176;52.678;13.250;2023-07-24T13:28:33;27.50;99.90
7290;DHT22;63176;52.678;13.250;2023-07-24T13:30:59;27.70;99.90
7290;DHT22;63176;52.678;13.250;2023-07-24T13:33:35;27.90;99.90
7290;DHT22;63176;52.678;13.250;2023-07-24T13:36:01;28.10;99.90
7290;DHT22;63176;52.678;13.250;2023-07-24T13:38:26;28.00;99.90
7290;DHT22;63176;52.678;13.250;2023-07-24T13:40:52;27.90;99.90
7290;DHT22;63176;52.678;13.250;2023-07-24T13:43:18;27.90;99.90
7290;DHT22;63176;52.678;13.250;2023-07-24T13:45:44;28.00;99.90
7290;DHT22;63176;52.678;13.250;2023-07-24T13:48:09;28.20;99.90
7290;DHT22;63176;52.678;13.250;2023-07-24T13:50:35;28.30;99.90
7290;DHT22;63176;52.678;13.250;2023-07-24T13:53:00;28.20;99.90
7290;DHT22;63176;52.678;13.250;2023-07-24T13:55:26;28.00;99.90
7290;DHT22;63176;52.678;13.250;2023-07-24T13:57:52;27.90;99.90
7290;DHT22;63176;52.678;13.250;2023-07-24T14:00:17;28.10;99.90
7290;DHT22;63176;52.678;13.250;2023-07-24T14:02:43;28.60;99.90
7290;DHT22;63176;52.678;13.250;2023-07-24T14:05:08;29.20;99.90
7290;DHT22;63176;52.678;13.250;2023-07-24T14:07:34;29.60;99.90
7290;DHT22;63176;52.678;13.250;2023-07-24T14:10:00;29.30;99.90
7290;DHT22;63176;52.678;13.250;2023-07-24T14:12:25;29.00;99.90
7290;DHT22;63176;52.678;13.250;2023-07-24T14:14:51;28.60;99.90
7290;DHT22;63176;52.678;13.250;2023-07-24T14:17:16;28.20;99.90
7290;DHT22;63176;52.678;13.250;2023-07-24T14:19:44;27.90;99.90
7290;DHT22;63176;52.678;13.250;2023-07-24T14:22:10;27.80;99.90
7290;DHT22;63176;52.678;13.250;2023-07-24T14:24:36;27.80;99.90
7290;DHT22;63176;52.678;13.250;2023-07-24T14:27:01;27.70;99.90
7290;DHT22;63176;52.678;13.250;2023-07-24T14:29:27;27.40;99.90
7290;DHT22;63176;52.678;13.250;2023-07-24T14:31:52;27.20;99.90
7290;DHT22;63176;52.678;13.250;2023-07-24T14:34:18;27.00;99.90
7290;DHT22;63176;52.678;13.250;2023-07-24T14:36:44;26.70;99.90
7290;DHT22;63176;52.678;13.250;2023-07-24T14:39:09;26.60;99.90
7290;DHT22;63176;52.678;13.250;2023-07-24T14:41:35;26.40;99.90
7290;DHT22;63176;52.678;13.250;2023-07-24T14:44:01;26.20;99.90
7290;DHT22;63176;52.678;13.250;2023-07-24T14:46:26;26.00;99.90
7290;DHT22;63176;52.678;13.250;2023-07-24T14:48:52;25.90;99.90
7290;DHT22;63176;52.678;13.250;2023-07-24T14:51:17;25.80;99.90
7290;DHT22;63176;52.678;13.250;2023-07-24T14:53:43;25.70;99.90
7290;DHT22;63176;52.678;13.250;2023-07-24T14:56:09;25.60;99.90
7290;DHT22;63176;52.678;13.250;2023-07-24T14:58:34;25.50;99.90
7290;DHT22;63176;52.678;13.250;2023-07-24T15:01:00;25.30;99.90
7290;DHT22;63176;52.678;13.250;2023-07-24T15:03:26;25.30;99.90
7290;DHT22;63176;52.678;13.250;2023-07-24T15:05:51;25.20;99.90
7290;DHT22;63176;52.678;13.250;2023-07-24T15:08:17;25.10;99.90
7290;DHT22;63176;52.678;13.250;2023-07-24T15:10:43;25.00;99.90
7290;DHT22;63176;52.678;13.250;2023-07-24T15:13:10;24.90;99.90
7290;DHT22;63176;52.678;13.250;2023-07-24T15:15:36;24.80;99.90
7290;DHT22;63176;52.678;13.250;2023-07-24T15:18:01;24.80;99.90
7290;DHT22;63176;52.678;13.250;2023-07-24T15:20:27;24.70;99.90
7290;DHT22;63176;52.678;13.250;2023-07-24T15:22:53;24.70;99.90
7290;DHT22;63176;52.678;13.250;2023-07-24T15:25:22;24.70;99.90
7290;DHT22;63176;52.678;13.250;2023-07-24T15:27:50;24.80;99.90
7290;DHT22;63176;52.678;13.250;2023-07-24T15:30:16;24.70;99.90
7290;DHT22;63176;52.678;13.250;2023-07-24T15:32:42;24.80;99.90
7290;DHT22;63176;52.678;13.250;2023-07-24T15:35:07;24.80;99.90
7290;DHT22;63176;52.678;13.250;2023-07-24T15:37:33;24.90;99.90
7290;DHT22;63176;52.678;13.250;2023-07-24T15:40:02;25.00;99.90
7290;DHT22;63176;52.678;13.250;2023-07-24T15:42:28;25.10;99.90
7290;DHT22;63176;52.678;13.250;2023-07-24T15:44:53;25.20;99.90
7290;DHT22;63176;52.678;13.250;2023-07-24T15:47:19;25.40;99.90